createdAt,value
2024-02-29T00:00:59.951Z,2.60
2024-02-29T00:03:28.375Z,2.60
2024-02-29T00:05:56.661Z,2.57
2024-02-29T00:08:24.985Z,2.60
2024-02-29T00:10:53.532Z,2.60
2024-02-29T00:13:22.451Z,2.50
2024-02-29T00:15:52.181Z,2.37
2024-02-29T00:18:20.554Z,2.60
2024-02-29T00:20:49.060Z,2.57
2024-02-29T00:23:17.345Z,2.73
2024-02-29T00:25:45.781Z,2.50
2024-02-29T00:28:14.396Z,2.40
2024-02-29T00:30:43.487Z,2.40
2024-02-29T00:33:13.244Z,2.40
2024-02-29T00:35:46.575Z,2.50
2024-02-29T00:38:17.897Z,2.87
2024-02-29T00:40:46.334Z,2.60
2024-02-29T00:43:14.706Z,2.27
2024-02-29T00:45:43.096Z,2.57
2024-02-29T00:48:12.801Z,2.20
2024-02-29T00:50:41.139Z,2.33
2024-02-29T00:53:09.454Z,2.10
2024-02-29T00:55:37.846Z,2.20
2024-02-29T00:58:06.549Z,2.10
2024-02-29T01:00:34.957Z,2.20
2024-02-29T01:03:03.555Z,2.13
2024-02-29T01:05:33.229Z,2.10
2024-02-29T01:08:01.701Z,2.20
2024-02-29T01:10:30.061Z,2.30
2024-02-29T01:12:58.981Z,2.00
2024-02-29T01:15:27.501Z,2.30
2024-02-29T01:17:55.937Z,2.30
2024-02-29T01:20:24.313Z,2.10
2024-02-29T01:22:54.010Z,2.20
2024-02-29T01:25:22.684Z,2.30
2024-02-29T01:27:51.390Z,2.10
2024-02-29T01:30:19.904Z,2.10
2024-02-29T01:32:48.495Z,2.03
2024-02-29T01:35:17.018Z,2.10
2024-02-29T01:37:45.411Z,2.20
2024-02-29T01:40:19.214Z,2.03
2024-02-29T01:42:47.832Z,2.37
2024-02-29T01:45:18.013Z,2.17
2024-02-29T01:47:46.388Z,2.30
2024-02-29T01:50:16.723Z,2.07
2024-02-29T01:52:46.558Z,2.40
2024-02-29T01:55:16.559Z,2.00
2024-02-29T01:57:45.958Z,2.10
2024-02-29T02:00:15.398Z,2.17
2024-02-29T02:02:44.392Z,2.10
2024-02-29T02:05:12.896Z,2.50
2024-02-29T02:07:45.301Z,2.40
2024-02-29T02:10:15.164Z,2.40
2024-02-29T02:12:43.572Z,2.20
2024-02-29T02:15:12.113Z,2.47
2024-02-29T02:17:40.537Z,2.30
2024-02-29T02:20:11.016Z,2.47
2024-02-29T02:22:40.793Z,2.17
2024-02-29T02:25:09.499Z,2.47
2024-02-29T02:27:39.506Z,2.00
2024-02-29T02:30:08.995Z,2.43
2024-02-29T02:32:37.712Z,2.40
2024-02-29T02:35:07.764Z,2.30
2024-02-29T02:37:37.624Z,2.30
2024-02-29T02:40:09.276Z,2.60
2024-02-29T02:42:37.807Z,2.30
2024-02-29T02:45:07.025Z,2.50
2024-02-29T02:47:35.356Z,2.70
2024-02-29T02:50:03.744Z,3.07
2024-02-29T02:52:32.065Z,3.00
2024-02-29T02:55:00.537Z,3.00
2024-02-29T02:57:30.287Z,2.90
2024-02-29T02:59:58.811Z,3.17
2024-02-29T03:02:27.202Z,2.53
2024-02-29T03:04:55.516Z,2.90
2024-02-29T03:07:24.265Z,2.30
2024-02-29T03:09:52.630Z,2.30
2024-02-29T03:12:20.983Z,2.20
2024-02-29T03:14:51.246Z,2.33
2024-02-29T03:17:20.719Z,2.33
2024-02-29T03:19:49.321Z,2.30
2024-02-29T03:22:17.710Z,2.07
2024-02-29T03:24:47.180Z,2.07
2024-02-29T03:27:15.632Z,2.10
2024-02-29T03:29:44.462Z,1.90
2024-02-29T03:32:14.259Z,1.80
2024-02-29T03:34:42.605Z,1.87
2024-02-29T03:37:11.204Z,1.80
2024-02-29T03:39:40.206Z,2.10
2024-02-29T03:42:08.845Z,1.97
2024-02-29T03:44:37.182Z,2.40
2024-02-29T03:47:05.931Z,1.90
2024-02-29T03:49:35.905Z,2.07
2024-02-29T03:52:04.481Z,2.00
2024-02-29T03:54:32.934Z,1.93
2024-02-29T03:57:01.413Z,1.90
2024-02-29T03:59:29.728Z,2.10
2024-02-29T04:02:01.155Z,2.33
2024-02-29T04:04:29.758Z,2.00
2024-02-29T04:06:59.744Z,2.10
2024-02-29T04:09:28.149Z,2.30
2024-02-29T04:11:56.442Z,2.10
2024-02-29T04:14:24.766Z,2.17
2024-02-29T04:16:53.070Z,2.20
2024-02-29T04:19:21.706Z,2.37
2024-02-29T04:21:50.314Z,2.30
2024-02-29T04:24:20.068Z,2.10
2024-02-29T04:26:48.438Z,2.17
2024-02-29T04:29:16.751Z,2.10
2024-02-29T04:31:49.245Z,2.40
2024-02-29T04:34:17.666Z,2.23
2024-02-29T04:36:46.009Z,2.20
2024-02-29T04:39:14.508Z,2.40
2024-02-29T04:41:44.275Z,2.50
2024-02-29T04:44:12.635Z,2.20
2024-02-29T04:46:41.020Z,2.33
2024-02-29T04:49:09.407Z,2.10
2024-02-29T04:51:40.427Z,2.20
2024-02-29T04:54:08.789Z,2.53
2024-02-29T04:56:38.873Z,2.40
2024-02-29T04:59:08.874Z,2.00
2024-02-29T05:01:37.286Z,2.70
2024-02-29T05:04:05.796Z,2.40
2024-02-29T05:06:34.099Z,2.53
2024-02-29T05:09:02.489Z,2.60
2024-02-29T05:11:30.939Z,2.50
2024-02-29T05:13:59.579Z,2.57
2024-02-29T05:16:29.310Z,2.73
2024-02-29T05:18:57.923Z,2.63
2024-02-29T05:21:27.112Z,2.50
2024-02-29T05:23:55.597Z,2.80
2024-02-29T05:26:23.992Z,2.50
2024-02-29T05:28:54.621Z,2.80
2024-02-29T05:31:23.022Z,2.70
2024-02-29T05:33:52.805Z,2.77
2024-02-29T05:36:21.197Z,2.50
2024-02-29T05:38:51.714Z,2.83
2024-02-29T05:41:20.230Z,2.47
2024-02-29T05:43:49.015Z,2.67
2024-02-29T05:46:17.827Z,2.63
2024-02-29T05:48:46.381Z,2.80
2024-02-29T05:51:16.204Z,3.00
2024-02-29T05:53:44.608Z,2.50
2024-02-29T05:56:14.801Z,2.70
2024-02-29T05:58:44.274Z,2.90
2024-02-29T06:01:13.098Z,3.07
2024-02-29T06:03:41.600Z,2.70
2024-02-29T06:06:11.641Z,3.10
2024-02-29T06:08:41.639Z,2.90
2024-02-29T06:11:14.188Z,3.00
2024-02-29T06:13:42.632Z,2.63
2024-02-29T06:16:13.703Z,3.03
2024-02-29T06:18:43.392Z,3.20
2024-02-29T06:21:14.671Z,3.17
2024-02-29T06:23:44.531Z,3.30
2024-02-29T06:26:12.985Z,3.37
2024-02-29T06:28:41.429Z,3.10
2024-02-29T06:31:10.120Z,3.27
2024-02-29T06:33:38.787Z,3.17
2024-02-29T06:36:10.092Z,2.93
2024-02-29T06:38:39.024Z,3.53
2024-02-29T06:41:11.337Z,3.13
2024-02-29T06:43:39.671Z,3.27
2024-02-29T08:25:40.497Z,3.30
2024-02-29T08:28:09.436Z,3.53
2024-02-29T08:31:16.815Z,3.30
2024-02-29T08:33:55.201Z,3.30
2024-02-29T08:36:35.000Z,3.13
2024-02-29T08:39:26.045Z,3.13
2024-02-29T08:42:00.433Z,3.00
2024-02-29T08:44:53.586Z,3.10
2024-02-29T08:47:45.893Z,2.80
2024-02-29T08:50:18.105Z,3.20
2024-02-29T08:53:11.497Z,2.80
2024-02-29T08:55:45.264Z,2.77
2024-02-29T08:58:20.108Z,2.47
2024-02-29T09:00:58.801Z,2.93
2024-02-29T09:03:41.074Z,2.60
2024-02-29T09:09:02.809Z,2.57
2024-02-29T09:10:01.467Z,2.60
2024-02-29T09:12:35.516Z,2.70
2024-02-29T09:15:08.217Z,2.50
2024-02-29T09:17:40.094Z,2.60
2024-02-29T09:20:12.083Z,2.80
2024-02-29T09:22:41.750Z,3.07
2024-02-29T09:25:11.875Z,3.13
2024-02-29T09:27:42.206Z,2.77
2024-02-29T09:30:12.041Z,3.00
2024-02-29T09:32:48.253Z,2.67
2024-02-29T09:35:20.117Z,2.77
2024-02-29T09:37:49.771Z,2.30
2024-02-29T09:40:21.786Z,2.50
2024-02-29T09:42:52.117Z,2.63
2024-02-29T09:45:25.459Z,2.63
2024-02-29T09:47:54.601Z,2.63
2024-02-29T09:50:23.371Z,2.67
2024-02-29T09:52:56.324Z,2.53
2024-02-29T09:55:25.694Z,3.43
2024-02-29T09:57:56.352Z,2.53
2024-02-29T10:00:31.367Z,2.77
2024-02-29T10:03:03.432Z,2.87
2024-02-29T10:05:40.729Z,2.80
2024-02-29T10:08:12.444Z,2.87
2024-02-29T10:10:41.696Z,2.70
2024-02-29T10:13:11.925Z,2.80
2024-02-29T10:15:40.709Z,2.57
2024-02-29T10:18:10.399Z,2.40
2024-02-29T10:20:39.233Z,3.20
2024-02-29T10:23:13.648Z,2.07
2024-02-29T10:25:44.208Z,2.57
2024-02-29T10:28:16.849Z,2.63
2024-02-29T10:30:53.491Z,2.60
2024-02-29T10:33:22.284Z,2.70
2024-02-29T10:35:51.908Z,2.13
2024-02-29T10:38:22.557Z,2.43
2024-02-29T10:40:53.372Z,3.17
2024-02-29T10:43:24.947Z,2.73
2024-02-29T10:45:56.603Z,2.50
2024-02-29T10:48:38.736Z,2.60
2024-02-29T10:51:22.590Z,2.40
2024-02-29T10:54:05.920Z,2.30
2024-02-29T10:57:17.327Z,2.77
2024-02-29T11:00:20.243Z,2.53
2024-02-29T11:02:52.523Z,2.00
2024-02-29T11:05:32.960Z,2.23
2024-02-29T11:08:08.112Z,1.83
2024-02-29T11:10:39.563Z,2.07
2024-02-29T11:13:09.816Z,1.60
2024-02-29T17:00:03.755Z,1.80
2024-02-29T17:02:33.683Z,1.90
2024-02-29T17:05:02.927Z,1.80
2024-02-29T17:07:31.609Z,1.90
2024-02-29T17:10:01.064Z,2.00
2024-02-29T17:12:30.430Z,2.30
2024-02-29T17:14:59.040Z,2.60
2024-02-29T17:17:30.024Z,2.53
2024-02-29T17:19:58.644Z,3.10
2024-02-29T17:22:28.835Z,3.70
2024-02-29T17:24:57.684Z,2.90
2024-02-29T17:27:26.839Z,2.53
2024-02-29T17:29:55.906Z,3.07
2024-02-29T17:32:26.386Z,2.53
2024-02-29T17:34:56.504Z,2.87
2024-02-29T17:37:27.927Z,2.83
2024-02-29T17:39:57.943Z,2.60
2024-02-29T17:42:26.464Z,3.37
2024-02-29T17:44:55.120Z,4.60
2024-02-29T17:47:23.643Z,2.93
2024-02-29T17:49:52.589Z,3.67
2024-02-29T17:52:22.648Z,5.17
2024-02-29T17:54:56.424Z,2.60
2024-02-29T17:57:26.524Z,3.03
2024-02-29T17:59:58.268Z,2.77
2024-02-29T18:02:30.655Z,2.73
2024-02-29T18:05:00.237Z,2.70
2024-02-29T18:07:30.564Z,3.03
2024-02-29T18:10:01.250Z,3.17
2024-02-29T18:12:31.576Z,3.00
2024-02-29T18:15:05.679Z,3.50
2024-02-29T18:17:40.627Z,3.00
2024-02-29T18:20:10.493Z,3.10
2024-02-29T18:22:42.807Z,3.07
2024-02-29T18:25:11.657Z,2.60
2024-02-29T18:27:40.525Z,2.63
2024-02-29T18:30:10.589Z,3.13
2024-02-29T18:32:39.604Z,3.07
2024-02-29T18:35:10.589Z,3.60
2024-02-29T18:37:40.930Z,3.10
2024-02-29T18:40:12.673Z,3.07
2024-02-29T18:42:41.602Z,3.13
2024-02-29T18:45:11.036Z,3.47
2024-02-29T18:47:39.658Z,2.83
2024-02-29T18:50:08.745Z,3.00
2024-02-29T18:52:37.384Z,3.10
2024-02-29T18:55:09.042Z,3.00
2024-02-29T18:57:38.986Z,2.93
2024-02-29T19:00:09.771Z,2.73
2024-02-29T19:02:38.276Z,2.87
2024-02-29T19:05:07.598Z,3.30
2024-02-29T19:07:36.185Z,2.97
2024-02-29T19:10:06.144Z,2.93
2024-02-29T19:12:34.714Z,2.93
2024-02-29T19:15:05.128Z,2.70
2024-02-29T19:17:36.049Z,2.70
2024-02-29T19:20:07.763Z,2.80
2024-02-29T19:22:36.636Z,2.70
2024-02-29T19:25:06.819Z,3.27
2024-02-29T19:27:35.685Z,2.97
2024-02-29T19:30:06.996Z,2.90
2024-02-29T19:32:35.799Z,2.83
2024-02-29T19:35:04.636Z,3.13
2024-02-29T19:37:33.181Z,2.70
2024-02-29T19:40:01.917Z,2.80
2024-02-29T19:42:30.680Z,2.63
2024-02-29T19:45:00.601Z,3.00
2024-02-29T19:47:30.783Z,2.80
2024-02-29T19:49:58.643Z,3.00
2024-02-29T19:52:34.537Z,3.10
2024-02-29T19:55:06.622Z,2.60
2024-02-29T19:57:36.192Z,2.87
2024-02-29T20:00:07.407Z,2.80
2024-02-29T20:02:46.244Z,2.50
2024-02-29T20:05:15.665Z,2.80
2024-02-29T20:07:44.144Z,2.53
2024-02-29T20:10:12.845Z,2.67
2024-02-29T20:12:41.244Z,2.83
2024-02-29T20:15:12.435Z,2.60
2024-02-29T20:17:42.749Z,3.03
2024-02-29T20:20:13.766Z,2.40
2024-02-29T20:22:42.288Z,2.90
2024-02-29T20:25:11.413Z,3.13
2024-02-29T20:27:40.066Z,2.87
2024-02-29T20:30:09.712Z,2.90
2024-02-29T20:32:40.246Z,2.43
2024-02-29T20:35:09.438Z,2.70
2024-02-29T20:37:39.331Z,2.70
2024-02-29T20:40:09.164Z,3.27
2024-02-29T20:42:37.724Z,3.33
2024-02-29T20:45:07.512Z,3.70
2024-02-29T20:47:36.228Z,3.60
2024-02-29T20:50:06.886Z,3.17
2024-02-29T20:52:35.760Z,3.43
2024-02-29T20:55:06.477Z,3.10
2024-02-29T20:57:35.201Z,3.20
2024-02-29T21:00:04.776Z,3.07
2024-02-29T21:02:33.375Z,3.20
2024-02-29T21:05:05.534Z,3.00
2024-02-29T21:07:34.823Z,3.20
2024-02-29T21:10:05.263Z,3.50
2024-02-29T21:12:35.694Z,3.90
2024-02-29T21:15:04.612Z,3.70
2024-02-29T21:17:33.345Z,4.00
2024-02-29T21:20:01.908Z,3.93
2024-02-29T21:22:30.685Z,3.50
2024-02-29T21:25:02.444Z,3.70
2024-02-29T21:27:31.118Z,3.70
2024-02-29T21:30:01.857Z,4.10
2024-02-29T21:32:30.447Z,3.70
2024-02-29T21:34:58.918Z,3.27
2024-02-29T21:37:27.460Z,3.40
2024-02-29T21:39:56.913Z,3.57
2024-02-29T21:42:25.444Z,3.50
2024-02-29T21:44:53.842Z,3.10
2024-02-29T21:47:23.598Z,3.17
2024-02-29T21:49:52.029Z,2.93
2024-02-29T21:52:20.485Z,3.00
2024-02-29T21:54:48.981Z,3.07
2024-02-29T21:57:18.279Z,2.97
2024-02-29T21:59:47.107Z,3.20
2024-02-29T22:02:15.779Z,2.80
2024-02-29T22:04:45.901Z,3.03
2024-02-29T22:07:14.478Z,2.73
2024-02-29T22:09:45.549Z,3.10
2024-02-29T22:12:14.258Z,2.93
2024-02-29T22:14:42.993Z,2.60
2024-02-29T22:17:11.673Z,3.10
2024-02-29T22:19:40.252Z,2.90
2024-02-29T22:22:10.277Z,2.50
2024-02-29T22:24:41.425Z,2.57
2024-02-29T22:27:10.182Z,2.63
2024-02-29T22:29:38.693Z,3.10
2024-02-29T22:32:07.828Z,2.93
2024-02-29T22:34:36.518Z,3.10
2024-02-29T22:37:05.157Z,2.80
2024-02-29T22:39:34.983Z,3.23
2024-02-29T22:42:03.759Z,3.13
2024-02-29T22:44:34.065Z,3.40
2024-02-29T22:47:02.704Z,2.50
2024-02-29T22:49:31.155Z,2.60
2024-02-29T22:51:59.608Z,2.87
2024-02-29T22:54:27.952Z,2.90
2024-02-29T22:56:57.648Z,2.80
2024-02-29T22:59:25.988Z,2.90
2024-02-29T23:01:54.633Z,2.53
2024-02-29T23:04:23.341Z,2.60
2024-02-29T23:06:51.954Z,3.10
2024-02-29T23:09:20.316Z,2.67
2024-02-29T23:11:48.861Z,2.60
2024-02-29T23:14:18.739Z,3.03
2024-02-29T23:16:47.179Z,2.43
2024-02-29T23:19:15.668Z,2.57
2024-02-29T23:21:44.052Z,2.80
2024-02-29T23:24:12.608Z,2.87
2024-02-29T23:26:40.969Z,2.50
2024-02-29T23:29:09.285Z,2.63
2024-02-29T23:31:39.776Z,2.80
2024-02-29T23:34:08.288Z,2.90
2024-02-29T23:36:36.830Z,2.60
2024-02-29T23:39:05.988Z,2.90
2024-02-29T23:41:34.400Z,3.07
2024-02-29T23:44:02.726Z,2.77
2024-02-29T23:46:31.125Z,2.63
2024-02-29T23:49:00.903Z,2.73
2024-02-29T23:51:29.257Z,2.50
2024-02-29T23:53:57.594Z,2.80
2024-02-29T23:56:25.982Z,2.50
2024-02-29T23:58:54.449Z,2.93
